createdAt,value
2018-07-16T00:00:29.158Z,53.49
2018-07-16T00:02:57.924Z,53.96
2018-07-16T00:05:26.993Z,53.58
2018-07-16T00:07:55.757Z,53.48
2018-07-16T00:10:24.674Z,54.71
2018-07-16T00:12:53.489Z,53.90
2018-07-16T00:15:22.355Z,55.38
2018-07-16T00:17:51.197Z,54.88
2018-07-16T00:20:19.975Z,54.81
2018-07-16T00:22:48.926Z,55.00
2018-07-16T00:25:17.716Z,54.20
2018-07-16T00:27:47.295Z,54.67
2018-07-16T00:30:16.070Z,54.44
2018-07-16T00:32:44.858Z,55.51
2018-07-16T00:35:13.691Z,55.21
2018-07-16T00:37:42.486Z,55.57
2018-07-16T00:40:11.279Z,55.75
2018-07-16T00:42:40.052Z,56.61
2018-07-16T00:45:08.889Z,55.52
2018-07-16T00:47:37.664Z,56.63
2018-07-16T00:50:06.445Z,56.74
2018-07-16T00:52:35.230Z,56.29
2018-07-16T00:55:04.095Z,56.23
2018-07-16T00:57:32.970Z,56.13
2018-07-16T01:00:02.010Z,56.33
2018-07-16T01:02:30.807Z,56.54
2018-07-16T01:04:59.597Z,57.24
2018-07-16T01:07:28.411Z,57.44
2018-07-16T01:09:57.231Z,57.60
2018-07-16T01:12:25.995Z,56.77
2018-07-16T01:14:55.023Z,57.02
2018-07-16T01:17:23.787Z,58.18
2018-07-16T01:19:52.540Z,57.82
2018-07-16T01:22:21.386Z,58.46
2018-07-16T01:24:50.190Z,58.47
2018-07-16T01:27:19.077Z,58.67
2018-07-16T01:29:47.846Z,58.96
2018-07-16T01:32:16.707Z,58.70
2018-07-16T01:34:45.463Z,59.07
2018-07-16T01:37:14.227Z,59.15
2018-07-16T01:39:42.993Z,59.11
2018-07-16T01:42:11.791Z,58.94
2018-07-16T01:44:40.591Z,58.59
2018-07-16T01:47:09.425Z,58.88
2018-07-16T01:49:38.213Z,59.96
2018-07-16T01:52:07.126Z,59.27
2018-07-16T01:54:36.191Z,59.28
2018-07-16T01:57:05.006Z,60.31
2018-07-16T01:59:33.822Z,59.34
2018-07-16T02:02:03.002Z,60.66
2018-07-16T02:04:38.247Z,60.42
2018-07-16T02:07:07.075Z,60.03
2018-07-16T02:09:36.057Z,60.60
2018-07-16T02:12:04.862Z,60.63
2018-07-16T02:14:49.098Z,61.39
2018-07-16T02:17:19.230Z,61.42
2018-07-16T02:19:49.863Z,61.76
2018-07-16T02:22:18.821Z,61.17
2018-07-16T02:24:47.584Z,61.46
2018-07-16T02:27:16.421Z,61.84
2018-07-16T02:29:45.230Z,61.33
2018-07-16T02:32:14.003Z,62.19
2018-07-16T02:34:42.801Z,61.62
2018-07-16T02:37:11.555Z,62.33
2018-07-16T02:39:40.332Z,62.63
2018-07-16T02:42:09.747Z,61.73
2018-07-16T02:44:38.565Z,62.71
2018-07-16T02:47:09.461Z,62.50
2018-07-16T02:49:38.248Z,62.65
2018-07-16T02:52:06.978Z,61.92
2018-07-16T02:54:35.785Z,62.41
2018-07-16T02:57:04.580Z,62.44
2018-07-16T02:59:33.353Z,62.30
2018-07-16T03:02:02.176Z,61.77
2018-07-16T03:04:30.943Z,62.15
2018-07-16T03:06:59.702Z,61.17
2018-07-16T03:09:28.470Z,61.36
2018-07-16T03:11:57.292Z,62.10
2018-07-16T03:14:26.047Z,62.06
2018-07-16T03:16:54.898Z,62.13
2018-07-16T03:19:23.660Z,62.62
2018-07-16T03:21:52.807Z,62.36
2018-07-16T03:24:21.981Z,62.12
2018-07-16T03:26:50.850Z,62.57
2018-07-16T03:29:19.663Z,61.97
2018-07-16T03:31:48.455Z,61.95
2018-07-16T03:34:17.641Z,62.63
2018-07-16T03:36:47.849Z,62.69
2018-07-16T03:39:16.666Z,62.16
2018-07-16T03:41:45.599Z,62.19
2018-07-16T03:44:14.449Z,62.27
2018-07-16T03:46:43.210Z,62.85
2018-07-16T03:49:12.724Z,62.66
2018-07-16T03:51:41.532Z,62.23
2018-07-16T03:54:10.414Z,62.82
2018-07-16T03:56:39.185Z,62.32
2018-07-16T03:59:08.060Z,63.07
2018-07-16T04:01:36.854Z,63.01
2018-07-16T04:04:05.937Z,62.79
2018-07-16T04:06:34.761Z,62.30
2018-07-16T04:09:05.884Z,62.07
2018-07-16T04:11:34.715Z,62.97
2018-07-16T04:14:03.899Z,62.52
2018-07-16T04:16:32.925Z,61.70
2018-07-16T04:19:01.779Z,62.52
2018-07-16T04:21:30.903Z,61.22
2018-07-16T04:24:00.499Z,62.00
2018-07-16T04:26:29.371Z,61.63
2018-07-16T04:28:58.372Z,62.27
2018-07-16T04:31:27.165Z,61.36
2018-07-16T04:33:55.982Z,60.62
2018-07-16T04:36:24.937Z,61.62
2018-07-16T04:38:53.764Z,61.41
2018-07-16T04:41:22.662Z,60.74
2018-07-16T04:43:51.459Z,60.95
2018-07-16T04:46:20.252Z,61.60
2018-07-16T04:48:49.129Z,60.76
2018-07-16T04:51:17.941Z,59.84
2018-07-16T04:53:46.785Z,59.21
2018-07-16T04:56:15.899Z,58.37
2018-07-16T04:58:44.723Z,58.00
2018-07-16T05:01:13.563Z,54.96
2018-07-16T05:03:42.429Z,52.71
2018-07-16T05:06:11.241Z,52.33
2018-07-16T05:08:40.078Z,51.09
2018-07-16T05:11:09.107Z,50.52
2018-07-16T05:13:38.022Z,49.86
2018-07-16T05:16:07.526Z,49.67
2018-07-16T05:18:36.331Z,48.43
2018-07-16T05:21:05.117Z,48.65
2018-07-16T05:23:33.935Z,46.73
2018-07-16T05:26:02.729Z,46.59
2018-07-16T05:28:31.530Z,45.21
2018-07-16T05:31:00.372Z,43.81
2018-07-16T05:33:29.190Z,44.21
2018-07-16T05:35:58.050Z,43.96
2018-07-16T05:38:26.924Z,44.99
2018-07-16T05:40:55.772Z,45.07
2018-07-16T05:43:24.722Z,44.09
2018-07-16T05:45:53.557Z,44.15
2018-07-16T05:48:22.345Z,44.92
2018-07-16T05:50:51.159Z,44.16
2018-07-16T05:53:20.048Z,45.83
2018-07-16T05:55:48.842Z,45.86
2018-07-16T05:58:17.700Z,46.67
2018-07-16T06:00:46.671Z,47.79
2018-07-16T06:03:15.607Z,48.72
2018-07-16T06:05:44.409Z,49.18
2018-07-16T06:08:13.223Z,49.58
2018-07-16T06:10:42.058Z,50.51
2018-07-16T06:13:10.920Z,51.94
2018-07-16T06:15:39.805Z,51.03
2018-07-16T06:18:08.663Z,51.15
2018-07-16T06:20:37.623Z,51.22
2018-07-16T06:23:06.516Z,52.38
2018-07-16T06:25:35.421Z,52.65
2018-07-16T06:28:04.314Z,52.37
2018-07-16T06:30:33.172Z,51.63
2018-07-16T06:33:01.989Z,52.97
2018-07-16T06:35:30.807Z,51.33
2018-07-16T06:37:59.643Z,50.89
2018-07-16T06:40:28.558Z,51.52
2018-07-16T06:42:57.518Z,52.00
2018-07-16T06:45:26.374Z,52.56
2018-07-16T06:47:55.180Z,52.27
2018-07-16T06:50:24.171Z,52.08
2018-07-16T06:52:53.004Z,52.43
2018-07-16T06:55:21.788Z,52.93
2018-07-16T06:57:50.639Z,53.32
2018-07-16T07:00:19.495Z,52.91
2018-07-16T07:02:48.295Z,51.92
2018-07-16T07:05:17.120Z,52.56
2018-07-16T07:07:46.007Z,51.75
2018-07-16T07:10:14.895Z,51.84
2018-07-16T07:12:43.718Z,51.89
2018-07-16T07:15:12.638Z,51.85
2018-07-16T07:17:41.505Z,52.10
2018-07-16T07:20:10.429Z,52.19
2018-07-16T07:22:39.325Z,51.54
2018-07-16T07:25:08.301Z,51.89
2018-07-16T07:27:37.118Z,51.21
2018-07-16T07:30:07.182Z,51.86
2018-07-16T07:32:36.355Z,51.87
2018-07-16T07:35:05.399Z,51.59
2018-07-16T07:37:34.151Z,50.64
2018-07-16T07:40:03.012Z,49.67
2018-07-16T07:42:32.032Z,49.77
2018-07-16T07:45:00.894Z,49.07
2018-07-16T07:47:29.825Z,48.45
2018-07-16T07:49:58.803Z,48.09
2018-07-16T07:52:27.589Z,48.63
2018-07-16T07:54:56.759Z,50.29
2018-07-16T07:57:25.410Z,49.49
2018-07-16T07:59:54.211Z,48.87
2018-07-16T08:02:22.974Z,49.64
2018-07-16T08:04:51.790Z,47.89
2018-07-16T08:07:20.593Z,48.51
2018-07-16T08:09:49.407Z,47.57
2018-07-16T08:12:18.233Z,48.15
2018-07-16T08:14:47.415Z,46.92
2018-07-16T08:17:16.239Z,44.63
2018-07-16T08:19:45.070Z,45.77
2018-07-16T08:22:13.940Z,45.66
2018-07-16T08:24:42.869Z,46.05
2018-07-16T08:27:11.719Z,46.46
2018-07-16T08:29:40.521Z,44.18
2018-07-16T08:32:09.510Z,43.87
2018-07-16T08:34:38.374Z,42.82
2018-07-16T08:37:07.399Z,43.93
2018-07-16T08:39:36.267Z,42.84
2018-07-16T08:42:05.562Z,41.50
2018-07-16T08:44:34.371Z,43.00
2018-07-16T08:47:03.192Z,42.63
2018-07-16T08:49:32.019Z,42.47
2018-07-16T08:52:00.803Z,41.99
2018-07-16T08:54:29.618Z,41.71
2018-07-16T08:56:58.428Z,42.89
2018-07-16T08:59:27.319Z,42.82
2018-07-16T09:01:56.118Z,43.68
2018-07-16T09:04:24.930Z,40.98
2018-07-16T09:06:53.687Z,40.42
2018-07-16T09:09:22.510Z,41.80
2018-07-16T09:11:51.301Z,41.13
2018-07-16T09:14:20.149Z,41.48
2018-07-16T09:16:49.307Z,40.70
2018-07-16T09:19:18.320Z,41.71
2018-07-16T09:21:47.302Z,39.72
2018-07-16T09:24:16.090Z,40.83
2018-07-16T09:26:44.915Z,40.62
2018-07-16T09:29:13.712Z,40.11
2018-07-16T09:31:42.862Z,40.28
2018-07-16T09:34:11.661Z,39.77
2018-07-16T09:36:40.446Z,39.48
2018-07-16T09:39:09.810Z,38.45
2018-07-16T09:41:38.830Z,38.91
2018-07-16T09:44:07.631Z,38.07
2018-07-16T09:46:36.434Z,39.01
2018-07-16T09:49:05.491Z,38.18
2018-07-16T09:51:34.233Z,39.05
2018-07-16T09:54:03.066Z,38.49
2018-07-16T09:56:31.933Z,38.39
2018-07-16T09:59:00.879Z,38.37
2018-07-16T10:01:34.823Z,38.68
2018-07-16T10:04:03.671Z,38.21
2018-07-16T10:06:32.441Z,39.04
2018-07-16T10:09:01.339Z,35.51
2018-07-16T10:11:30.162Z,35.38
2018-07-16T10:14:00.504Z,36.23
2018-07-16T10:16:29.330Z,35.60
2018-07-16T10:18:58.089Z,36.63
2018-07-16T10:21:27.146Z,34.93
2018-07-16T10:23:56.042Z,34.24
2018-07-16T10:26:24.848Z,33.80
2018-07-16T10:28:54.571Z,35.38
2018-07-16T10:31:23.385Z,31.59
2018-07-16T10:33:52.353Z,32.97
2018-07-16T10:36:21.293Z,30.85
2018-07-16T10:38:50.094Z,30.73
2018-07-16T10:41:19.029Z,31.71
2018-07-16T10:43:48.023Z,32.62
2018-07-16T10:46:16.866Z,32.67
2018-07-16T10:48:50.149Z,34.69
2018-07-16T10:51:19.204Z,32.33
2018-07-16T10:53:48.397Z,31.38
2018-07-16T10:56:17.233Z,33.08
2018-07-16T10:58:46.063Z,33.61
2018-07-16T11:01:14.986Z,32.79
2018-07-16T11:03:43.762Z,34.86
2018-07-16T11:06:17.774Z,34.60
2018-07-16T11:08:46.574Z,34.55
2018-07-16T11:11:15.770Z,34.68
2018-07-16T11:13:44.582Z,34.17
2018-07-16T11:16:13.474Z,34.37
2018-07-16T11:18:42.247Z,31.99
2018-07-16T11:21:11.187Z,33.36
2018-07-16T11:23:40.118Z,32.61
2018-07-16T11:26:09.328Z,28.90
2018-07-16T11:28:38.164Z,28.94
2018-07-16T11:31:06.984Z,32.48
2018-07-16T11:33:35.858Z,33.50
2018-07-16T11:36:05.070Z,34.15
2018-07-16T11:38:33.882Z,33.78
2018-07-16T11:41:02.771Z,33.37
2018-07-16T11:43:31.656Z,33.63
2018-07-16T11:46:00.549Z,33.74
2018-07-16T11:48:29.576Z,33.69
2018-07-16T11:50:58.437Z,34.09
2018-07-16T11:53:27.276Z,34.03
2018-07-16T11:55:56.214Z,35.92
2018-07-16T11:58:25.096Z,34.63
2018-07-16T12:00:54.247Z,34.51
2018-07-16T12:03:23.089Z,34.71
2018-07-16T12:05:52.137Z,34.62
2018-07-16T12:08:20.943Z,34.92
2018-07-16T12:10:49.843Z,33.57
2018-07-16T12:13:18.627Z,33.43
2018-07-16T12:15:47.434Z,34.33
2018-07-16T12:18:16.287Z,33.28
2018-07-16T12:20:45.068Z,34.35
2018-07-16T12:23:14.004Z,34.32
2018-07-16T12:25:42.816Z,34.27
2018-07-16T12:28:11.644Z,34.93
2018-07-16T12:30:40.490Z,34.77
2018-07-16T12:33:09.315Z,34.72
2018-07-16T12:35:38.202Z,34.91
2018-07-16T12:38:07.056Z,33.53
2018-07-16T12:40:35.834Z,33.87
2018-07-16T12:43:05.016Z,34.77
2018-07-16T12:45:33.840Z,34.74
2018-07-16T12:48:02.670Z,32.98
2018-07-16T12:50:31.584Z,33.87
2018-07-16T12:53:00.509Z,34.46
2018-07-16T12:55:29.459Z,34.17
2018-07-16T12:57:58.413Z,34.40
2018-07-16T13:00:27.330Z,34.10
2018-07-16T13:02:56.127Z,35.08
2018-07-16T13:05:25.004Z,34.40
2018-07-16T13:07:53.787Z,36.15
2018-07-16T13:10:29.178Z,36.07
2018-07-16T13:12:58.623Z,35.63
2018-07-16T13:15:27.523Z,35.83
2018-07-16T13:17:56.470Z,36.17
2018-07-16T13:20:25.377Z,36.28
2018-07-16T13:22:54.207Z,37.02
2018-07-16T13:25:23.064Z,37.37
2018-07-16T13:27:53.287Z,35.55
2018-07-16T13:30:24.601Z,37.00
2018-07-16T13:32:56.772Z,36.63
2018-07-16T13:35:25.984Z,34.59
2018-07-16T13:37:55.024Z,35.58
2018-07-16T13:40:24.287Z,34.78
2018-07-16T13:42:53.107Z,35.79
2018-07-16T13:45:21.931Z,35.15
2018-07-16T13:47:50.758Z,35.78
2018-07-16T13:50:20.322Z,35.53
2018-07-16T13:52:49.311Z,35.03
2018-07-16T13:55:19.374Z,35.47
2018-07-16T13:57:55.951Z,35.10
2018-07-16T14:00:25.359Z,36.06
2018-07-16T14:02:55.391Z,35.34
2018-07-16T14:05:24.237Z,33.62
2018-07-16T14:07:53.070Z,34.78
2018-07-16T14:10:21.909Z,33.83
2018-07-16T14:12:50.707Z,35.68
2018-07-16T14:15:19.562Z,34.88
2018-07-16T14:17:48.423Z,35.17
2018-07-16T14:20:17.331Z,35.26
2018-07-16T14:22:46.250Z,36.16
2018-07-16T14:25:15.117Z,35.19
2018-07-16T14:27:43.946Z,35.90
2018-07-16T14:30:12.794Z,35.56
2018-07-16T14:32:41.635Z,34.50
2018-07-16T14:35:10.620Z,35.06
2018-07-16T14:37:39.468Z,34.78
2018-07-16T14:40:08.428Z,35.50
2018-07-16T14:42:37.471Z,34.84
2018-07-16T14:45:12.672Z,34.76
2018-07-16T14:47:41.662Z,33.87
2018-07-16T14:50:10.626Z,35.56
2018-07-16T14:52:39.450Z,34.58
2018-07-16T14:55:08.300Z,34.18
2018-07-16T14:57:37.199Z,35.04
2018-07-16T15:00:08.091Z,34.96
2018-07-16T15:02:36.894Z,34.81
2018-07-16T15:05:05.963Z,35.22
2018-07-16T15:07:34.811Z,34.57
2018-07-16T15:10:04.353Z,34.67
2018-07-16T15:12:33.545Z,34.15
2018-07-16T15:15:02.402Z,34.66
2018-07-16T15:17:31.604Z,34.26
2018-07-16T15:20:00.477Z,34.15
2018-07-16T15:22:29.823Z,34.19
2018-07-16T15:25:03.172Z,34.16
2018-07-16T15:27:32.162Z,33.52
2018-07-16T15:30:00.978Z,35.04
2018-07-16T15:32:29.798Z,35.60
2018-07-16T15:34:58.620Z,35.13
2018-07-16T15:37:27.474Z,34.78
2018-07-16T15:39:56.298Z,34.36
2018-07-16T15:42:25.102Z,34.51
2018-07-16T15:44:53.918Z,35.00
2018-07-16T15:47:22.763Z,35.46
2018-07-16T15:49:51.578Z,34.68
2018-07-16T15:52:20.431Z,35.80
2018-07-16T15:54:49.261Z,35.20
2018-07-16T15:57:18.054Z,34.63
2018-07-16T15:59:46.861Z,34.84
2018-07-16T16:02:15.727Z,35.13
2018-07-16T16:04:44.637Z,35.21
2018-07-16T16:07:13.457Z,35.09
2018-07-16T16:09:42.339Z,34.72
2018-07-16T16:12:11.217Z,35.30
2018-07-16T16:14:40.191Z,35.86
2018-07-16T16:17:09.082Z,35.43
2018-07-16T16:19:38.039Z,35.34
2018-07-16T16:22:06.901Z,36.63
2018-07-16T16:24:35.802Z,36.95
2018-07-16T16:27:04.689Z,35.72
2018-07-16T16:29:33.490Z,36.51
2018-07-16T16:32:02.410Z,36.40
2018-07-16T16:34:31.255Z,37.87
2018-07-16T16:37:00.057Z,38.07
2018-07-16T16:39:28.940Z,36.41
2018-07-16T16:41:57.810Z,38.18
2018-07-16T16:44:27.196Z,37.45
2018-07-16T16:46:56.630Z,38.53
2018-07-16T16:49:25.473Z,38.54
2018-07-16T16:51:54.757Z,38.27
2018-07-16T16:54:23.624Z,37.93
2018-07-16T16:56:52.470Z,38.26
2018-07-16T16:59:21.604Z,38.13
2018-07-16T17:01:50.451Z,38.39
2018-07-16T17:04:21.896Z,38.36
2018-07-16T17:06:50.735Z,38.00
2018-07-16T17:09:19.523Z,38.54
2018-07-16T17:11:48.353Z,38.82
2018-07-16T17:14:17.370Z,38.20
2018-07-16T17:16:46.179Z,38.39
2018-07-16T17:19:15.026Z,39.52
2018-07-16T17:21:47.379Z,38.10
2018-07-16T17:24:16.190Z,38.57
2018-07-16T17:26:45.823Z,38.65
2018-07-16T17:29:14.597Z,38.83
2018-07-16T17:31:43.418Z,39.69
2018-07-16T17:34:12.291Z,40.09
2018-07-16T17:36:44.183Z,41.36
2018-07-16T17:39:15.525Z,41.36
2018-07-16T17:41:44.344Z,41.67
2018-07-16T17:44:13.191Z,42.94
2018-07-16T17:46:41.985Z,43.39
2018-07-16T17:49:10.835Z,44.00
2018-07-16T17:51:39.647Z,43.06
2018-07-16T17:54:08.853Z,43.64
2018-07-16T17:56:37.743Z,44.01
2018-07-16T17:59:06.810Z,44.17
2018-07-16T18:01:35.720Z,44.32
2018-07-16T18:04:04.682Z,44.40
2018-07-16T18:06:33.469Z,45.22
2018-07-16T18:09:02.300Z,45.01
2018-07-16T18:11:31.303Z,45.50
2018-07-16T18:14:00.224Z,45.40
2018-07-16T18:16:29.020Z,45.52
2018-07-16T18:18:57.883Z,45.12
2018-07-16T18:21:27.447Z,43.98
2018-07-16T18:23:56.428Z,45.45
2018-07-16T18:26:25.205Z,45.47
2018-07-16T18:28:54.094Z,45.10
2018-07-16T18:31:22.881Z,44.95
2018-07-16T18:33:52.005Z,44.19
2018-07-16T18:36:20.801Z,44.66
2018-07-16T18:38:49.687Z,43.50
2018-07-16T18:41:18.532Z,44.16
2018-07-16T18:43:47.320Z,44.34
2018-07-16T18:46:16.106Z,44.32
2018-07-16T18:48:44.979Z,44.89
2018-07-16T18:51:13.860Z,45.18
2018-07-16T18:53:43.328Z,43.89
2018-07-16T18:56:12.394Z,44.80
2018-07-16T18:58:41.379Z,44.21
2018-07-16T19:01:10.802Z,45.02
2018-07-16T19:03:40.162Z,45.02
2018-07-16T19:06:09.092Z,44.23
2018-07-16T19:08:37.886Z,45.25
2018-07-16T19:11:13.860Z,44.52
2018-07-16T19:13:43.036Z,45.59
2018-07-16T19:16:12.334Z,45.57
2018-07-16T19:18:41.107Z,44.97
2018-07-16T19:21:09.911Z,44.94
2018-07-16T19:23:40.344Z,45.07
2018-07-16T19:26:09.110Z,44.85
2018-07-16T19:28:37.982Z,45.09
2018-07-16T19:31:06.954Z,44.36
2018-07-16T19:33:35.778Z,44.79
2018-07-16T19:36:04.613Z,45.83
2018-07-16T19:38:33.406Z,44.66
2018-07-16T19:41:02.333Z,44.67
2018-07-16T19:43:31.266Z,44.98
2018-07-16T19:46:00.493Z,44.65
2018-07-16T19:48:29.758Z,44.67
2018-07-16T19:50:58.762Z,44.58
2018-07-16T19:53:27.735Z,44.74
2018-07-16T19:55:56.771Z,45.58
2018-07-16T19:58:25.558Z,44.79
2018-07-16T20:00:54.338Z,45.17
2018-07-16T20:03:23.314Z,45.35
2018-07-16T20:05:53.220Z,44.26
2018-07-16T20:08:22.192Z,45.28
2018-07-16T20:10:51.018Z,45.85
2018-07-16T20:13:19.877Z,45.91
2018-07-16T20:15:49.011Z,45.73
2018-07-16T20:18:17.876Z,46.31
2018-07-16T20:20:56.056Z,47.59
2018-07-16T20:23:25.076Z,48.24
2018-07-16T20:25:55.471Z,47.68
2018-07-16T20:28:24.381Z,48.72
2018-07-16T20:30:53.180Z,48.34
2018-07-16T20:33:22.047Z,48.76
2018-07-16T20:35:50.920Z,48.78
2018-07-16T20:38:19.709Z,48.05
2018-07-16T20:40:48.559Z,48.68
2018-07-16T20:43:17.339Z,48.69
2018-07-16T20:45:46.137Z,48.91
2018-07-16T20:48:15.973Z,48.86
2018-07-16T20:50:44.782Z,48.94
2018-07-16T20:53:13.639Z,50.02
2018-07-16T20:55:42.415Z,50.37
2018-07-16T20:58:11.152Z,50.63
2018-07-16T21:00:43.001Z,50.50
2018-07-16T21:03:12.673Z,50.81
2018-07-16T21:05:41.474Z,50.75
2018-07-16T21:08:10.297Z,50.88
2018-07-16T21:10:39.077Z,50.21
2018-07-16T21:13:08.782Z,51.49
2018-07-16T21:15:37.519Z,51.84
2018-07-16T21:18:06.306Z,51.54
2018-07-16T21:20:35.081Z,51.77
2018-07-16T21:23:03.931Z,51.14
2018-07-16T21:25:32.852Z,51.31
2018-07-16T21:28:01.600Z,50.59
2018-07-16T21:30:30.417Z,51.05
2018-07-16T21:32:59.820Z,50.89
2018-07-16T21:35:28.699Z,51.84
2018-07-16T21:37:57.487Z,51.57
2018-07-16T21:40:26.331Z,52.03
2018-07-16T21:42:56.747Z,52.96
2018-07-16T21:45:25.568Z,52.63
2018-07-16T21:47:54.332Z,53.60
2018-07-16T21:50:23.089Z,53.01
2018-07-16T21:52:52.269Z,53.89
2018-07-16T21:55:21.076Z,54.36
2018-07-16T21:57:49.861Z,54.89
2018-07-16T22:00:28.025Z,54.99
2018-07-16T22:02:57.533Z,55.01
2018-07-16T22:05:27.457Z,55.74
2018-07-16T22:07:57.297Z,55.92
2018-07-16T22:10:27.097Z,56.18
2018-07-16T22:12:57.251Z,56.30
2018-07-16T22:15:27.245Z,56.39
2018-07-16T22:17:57.258Z,55.40
2018-07-16T22:20:26.954Z,56.10
2018-07-16T22:22:55.961Z,54.79
2018-07-16T22:25:25.679Z,55.33
2018-07-16T22:27:54.662Z,55.48
2018-07-16T22:30:23.529Z,55.47
2018-07-16T22:32:53.323Z,55.18
2018-07-16T22:35:22.165Z,55.13
2018-07-16T22:37:50.947Z,56.01
2018-07-16T22:40:19.751Z,56.95
2018-07-16T22:42:48.530Z,57.04
2018-07-16T22:45:17.306Z,56.79
2018-07-16T22:47:46.086Z,57.32
2018-07-16T22:50:14.868Z,57.38
2018-07-16T22:52:43.631Z,57.14
2018-07-16T22:55:12.392Z,57.91
2018-07-16T22:57:41.155Z,58.14
2018-07-16T23:00:10.083Z,58.07
2018-07-16T23:02:38.849Z,57.46
2018-07-16T23:05:07.714Z,57.46
2018-07-16T23:07:36.545Z,57.79
2018-07-16T23:10:05.437Z,58.27
2018-07-16T23:12:34.226Z,58.21
2018-07-16T23:15:03.031Z,59.00
2018-07-16T23:17:32.018Z,58.29
2018-07-16T23:20:00.776Z,58.06
2018-07-16T23:22:29.575Z,57.95
2018-07-16T23:24:58.318Z,58.61
2018-07-16T23:27:27.145Z,58.17
2018-07-16T23:29:55.951Z,57.90
2018-07-16T23:32:24.702Z,56.96
2018-07-16T23:34:53.453Z,57.40
2018-07-16T23:37:22.245Z,58.06
2018-07-16T23:39:51.058Z,59.21
2018-07-16T23:42:19.899Z,58.74
2018-07-16T23:44:48.710Z,57.40
2018-07-16T23:47:17.522Z,58.44
2018-07-16T23:49:46.336Z,59.16
2018-07-16T23:52:15.157Z,60.31
2018-07-16T23:54:43.946Z,59.80
2018-07-16T23:57:12.745Z,59.87
2018-07-16T23:59:41.562Z,60.00
